sensor_id;sensor_type;location;lat;lon;timestamp;P1;durP1;ratioP1;P2;durP2;ratioP2
70071;SDS011;57434;42.794;23.302;2023-04-03T00:00:48;15.27;;;6.15;;
70071;SDS011;57434;42.794;23.302;2023-04-03T00:01:50;13.80;;;5.35;;
70071;SDS011;57434;42.794;23.302;2023-04-03T00:02:52;13.05;;;5.38;;
70071;SDS011;57434;42.794;23.302;2023-04-03T00:03:53;13.97;;;6.33;;
70071;SDS011;57434;42.794;23.302;2023-04-03T00:04:56;15.68;;;5.88;;
70071;SDS011;57434;42.794;23.302;2023-04-03T00:05:57;12.45;;;5.07;;
70071;SDS011;57434;42.794;23.302;2023-04-03T00:06:59;12.95;;;5.13;;
70071;SDS011;57434;42.794;23.302;2023-04-03T00:08:01;16.52;;;5.93;;
70071;SDS011;57434;42.794;23.302;2023-04-03T00:09:03;11.90;;;5.82;;
70071;SDS011;57434;42.794;23.302;2023-04-03T00:10:04;13.20;;;5.97;;
70071;SDS011;57434;42.794;23.302;2023-04-03T00:11:07;15.27;;;5.45;;
70071;SDS011;57434;42.794;23.302;2023-04-03T00:12:09;12.98;;;5.28;;
70071;SDS011;57434;42.794;23.302;2023-04-03T00:13:11;11.10;;;4.97;;
70071;SDS011;57434;42.794;23.302;2023-04-03T00:14:13;12.60;;;5.47;;
70071;SDS011;57434;42.794;23.302;2023-04-03T00:15:15;11.85;;;4.75;;
70071;SDS011;57434;42.794;23.302;2023-04-03T00:16:18;14.48;;;5.05;;
70071;SDS011;57434;42.794;23.302;2023-04-03T00:17:20;11.23;;;4.78;;
70071;SDS011;57434;42.794;23.302;2023-04-03T00:18:22;9.02;;;4.93;;
70071;SDS011;57434;42.794;23.302;2023-04-03T00:19:24;15.07;;;4.90;;
70071;SDS011;57434;42.794;23.302;2023-04-03T00:20:25;9.00;;;4.38;;
70071;SDS011;57434;42.794;23.302;2023-04-03T00:21:27;13.65;;;4.88;;
70071;SDS011;57434;42.794;23.302;2023-04-03T00:22:29;14.13;;;5.30;;
70071;SDS011;57434;42.794;23.302;2023-04-03T00:23:31;11.05;;;4.93;;
70071;SDS011;57434;42.794;23.302;2023-04-03T00:24:33;10.80;;;4.20;;
70071;SDS011;57434;42.794;23.302;2023-04-03T00:25:34;8.23;;;3.70;;
70071;SDS011;57434;42.794;23.302;2023-04-03T00:26:36;10.40;;;4.72;;
70071;SDS011;57434;42.794;23.302;2023-04-03T00:27:38;12.05;;;4.05;;
70071;SDS011;57434;42.794;23.302;2023-04-03T00:28:41;12.38;;;4.55;;
70071;SDS011;57434;42.794;23.302;2023-04-03T00:29:42;11.18;;;4.20;;
70071;SDS011;57434;42.794;23.302;2023-04-03T00:30:44;11.57;;;4.65;;
70071;SDS011;57434;42.794;23.302;2023-04-03T00:31:46;10.95;;;5.03;;
70071;SDS011;57434;42.794;23.302;2023-04-03T00:32:48;10.30;;;4.22;;
70071;SDS011;57434;42.794;23.302;2023-04-03T00:33:51;11.30;;;4.40;;
70071;SDS011;57434;42.794;23.302;2023-04-03T00:34:53;9.03;;;3.97;;
70071;SDS011;57434;42.794;23.302;2023-04-03T00:35:54;9.93;;;3.80;;
70071;SDS011;57434;42.794;23.302;2023-04-03T00:36:56;10.02;;;3.53;;
70071;SDS011;57434;42.794;23.302;2023-04-03T00:37:58;8.32;;;3.95;;
70071;SDS011;57434;42.794;23.302;2023-04-03T00:39:00;10.35;;;3.42;;
70071;SDS011;57434;42.794;23.302;2023-04-03T00:40:02;8.77;;;3.55;;
70071;SDS011;57434;42.794;23.302;2023-04-03T00:41:05;10.25;;;3.35;;
70071;SDS011;57434;42.794;23.302;2023-04-03T00:42:07;9.50;;;3.92;;
70071;SDS011;57434;42.794;23.302;2023-04-03T00:43:11;10.75;;;3.35;;
70071;SDS011;57434;42.794;23.302;2023-04-03T00:45:35;10.13;;;4.00;;
70071;SDS011;57434;42.794;23.302;2023-04-03T00:46:39;10.98;;;3.63;;
70071;SDS011;57434;42.794;23.302;2023-04-03T00:47:41;8.95;;;3.30;;
70071;SDS011;57434;42.794;23.302;2023-04-03T00:48:44;8.82;;;3.33;;
70071;SDS011;57434;42.794;23.302;2023-04-03T00:49:47;10.13;;;3.83;;
70071;SDS011;57434;42.794;23.302;2023-04-03T00:50:50;10.70;;;3.80;;
70071;SDS011;57434;42.794;23.302;2023-04-03T00:51:53;9.68;;;3.72;;
70071;SDS011;57434;42.794;23.302;2023-04-03T00:52:57;8.68;;;3.22;;
70071;SDS011;57434;42.794;23.302;2023-04-03T00:54:00;8.82;;;3.58;;
70071;SDS011;57434;42.794;23.302;2023-04-03T00:55:06;8.02;;;3.15;;
70071;SDS011;57434;42.794;23.302;2023-04-03T00:56:10;9.47;;;4.30;;
70071;SDS011;57434;42.794;23.302;2023-04-03T00:57:16;9.52;;;3.00;;
70071;SDS011;57434;42.794;23.302;2023-04-03T00:58:19;6.47;;;2.88;;
70071;SDS011;57434;42.794;23.302;2023-04-03T00:59:27;7.97;;;2.90;;
70071;SDS011;57434;42.794;23.302;2023-04-03T01:00:35;7.20;;;2.72;;
70071;SDS011;57434;42.794;23.302;2023-04-03T01:01:41;7.88;;;3.05;;
70071;SDS011;57434;42.794;23.302;2023-04-03T01:02:44;7.35;;;2.67;;
70071;SDS011;57434;42.794;23.302;2023-04-03T01:03:46;6.97;;;2.42;;
70071;SDS011;57434;42.794;23.302;2023-04-03T01:04:48;8.00;;;2.85;;
70071;SDS011;57434;42.794;23.302;2023-04-03T01:05:49;8.23;;;2.58;;
70071;SDS011;57434;42.794;23.302;2023-04-03T01:06:51;6.27;;;2.70;;
70071;SDS011;57434;42.794;23.302;2023-04-03T01:07:53;8.20;;;3.00;;
70071;SDS011;57434;42.794;23.302;2023-04-03T01:08:55;6.57;;;2.60;;
70071;SDS011;57434;42.794;23.302;2023-04-03T01:09:58;7.15;;;2.97;;
70071;SDS011;57434;42.794;23.302;2023-04-03T01:11:02;8.10;;;3.03;;
70071;SDS011;57434;42.794;23.302;2023-04-03T01:13:31;7.65;;;3.20;;
70071;SDS011;57434;42.794;23.302;2023-04-03T01:14:34;13.70;;;5.90;;
70071;SDS011;57434;42.794;23.302;2023-04-03T01:15:35;13.98;;;6.32;;
70071;SDS011;57434;42.794;23.302;2023-04-03T01:16:37;12.73;;;4.88;;
70071;SDS011;57434;42.794;23.302;2023-04-03T01:17:40;10.77;;;4.50;;
70071;SDS011;57434;42.794;23.302;2023-04-03T01:18:46;9.15;;;3.83;;
70071;SDS011;57434;42.794;23.302;2023-04-03T01:19:49;10.25;;;5.20;;
70071;SDS011;57434;42.794;23.302;2023-04-03T01:22:33;8.80;;;2.85;;
70071;SDS011;57434;42.794;23.302;2023-04-03T01:25:28;6.10;;;2.33;;
70071;SDS011;57434;42.794;23.302;2023-04-03T01:26:30;7.85;;;3.25;;
70071;SDS011;57434;42.794;23.302;2023-04-03T01:27:33;6.68;;;2.90;;
70071;SDS011;57434;42.794;23.302;2023-04-03T01:28:35;9.93;;;4.60;;
70071;SDS011;57434;42.794;23.302;2023-04-03T01:29:37;8.00;;;3.47;;
70071;SDS011;57434;42.794;23.302;2023-04-03T01:30:47;7.55;;;3.38;;
70071;SDS011;57434;42.794;23.302;2023-04-03T01:31:57;8.27;;;4.25;;
70071;SDS011;57434;42.794;23.302;2023-04-03T01:33:00;8.57;;;4.10;;
70071;SDS011;57434;42.794;23.302;2023-04-03T01:34:02;6.35;;;2.58;;
70071;SDS011;57434;42.794;23.302;2023-04-03T01:35:06;6.43;;;2.90;;
70071;SDS011;57434;42.794;23.302;2023-04-03T01:36:10;6.97;;;2.97;;
70071;SDS011;57434;42.794;23.302;2023-04-03T01:37:16;6.32;;;2.90;;
70071;SDS011;57434;42.794;23.302;2023-04-03T01:38:18;10.35;;;3.35;;
70071;SDS011;57434;42.794;23.302;2023-04-03T01:39:20;7.75;;;3.20;;
70071;SDS011;57434;42.794;23.302;2023-04-03T01:40:22;8.90;;;3.10;;
70071;SDS011;57434;42.794;23.302;2023-04-03T01:41:24;7.03;;;3.72;;
70071;SDS011;57434;42.794;23.302;2023-04-03T01:42:26;7.28;;;3.20;;
70071;SDS011;57434;42.794;23.302;2023-04-03T01:43:28;7.75;;;3.42;;
70071;SDS011;57434;42.794;23.302;2023-04-03T01:44:29;6.43;;;2.60;;
70071;SDS011;57434;42.794;23.302;2023-04-03T01:45:31;6.63;;;2.80;;
70071;SDS011;57434;42.794;23.302;2023-04-03T01:46:33;7.15;;;3.25;;
70071;SDS011;57434;42.794;23.302;2023-04-03T01:47:35;7.65;;;2.78;;
70071;SDS011;57434;42.794;23.302;2023-04-03T01:48:37;7.32;;;3.08;;
70071;SDS011;57434;42.794;23.302;2023-04-03T01:49:39;7.72;;;2.30;;
70071;SDS011;57434;42.794;23.302;2023-04-03T01:50:40;5.87;;;2.30;;
70071;SDS011;57434;42.794;23.302;2023-04-03T01:51:42;7.07;;;2.88;;
70071;SDS011;57434;42.794;23.302;2023-04-03T01:52:44;5.47;;;2.92;;
70071;SDS011;57434;42.794;23.302;2023-04-03T01:53:45;6.65;;;2.60;;
70071;SDS011;57434;42.794;23.302;2023-04-03T01:54:47;6.35;;;2.45;;
70071;SDS011;57434;42.794;23.302;2023-04-03T01:55:49;5.05;;;1.95;;
70071;SDS011;57434;42.794;23.302;2023-04-03T01:56:51;5.40;;;2.03;;
70071;SDS011;57434;42.794;23.302;2023-04-03T01:57:52;5.20;;;1.75;;
70071;SDS011;57434;42.794;23.302;2023-04-03T01:58:54;6.88;;;2.40;;
70071;SDS011;57434;42.794;23.302;2023-04-03T01:59:56;8.10;;;2.33;;
70071;SDS011;57434;42.794;23.302;2023-04-03T02:00:58;6.77;;;2.30;;
70071;SDS011;57434;42.794;23.302;2023-04-03T02:01:59;6.20;;;1.67;;
70071;SDS011;57434;42.794;23.302;2023-04-03T02:03:01;6.15;;;2.33;;
70071;SDS011;57434;42.794;23.302;2023-04-03T02:04:04;6.70;;;2.17;;
70071;SDS011;57434;42.794;23.302;2023-04-03T02:05:05;5.85;;;2.33;;
70071;SDS011;57434;42.794;23.302;2023-04-03T02:06:08;8.25;;;2.22;;
70071;SDS011;57434;42.794;23.302;2023-04-03T02:07:11;6.45;;;2.53;;
70071;SDS011;57434;42.794;23.302;2023-04-03T02:08:13;9.30;;;2.38;;
70071;SDS011;57434;42.794;23.302;2023-04-03T02:09:17;6.53;;;2.38;;
70071;SDS011;57434;42.794;23.302;2023-04-03T02:10:19;9.05;;;2.80;;
70071;SDS011;57434;42.794;23.302;2023-04-03T02:11:21;6.37;;;2.50;;
70071;SDS011;57434;42.794;23.302;2023-04-03T02:12:22;6.85;;;2.85;;
70071;SDS011;57434;42.794;23.302;2023-04-03T02:13:24;6.38;;;2.58;;
70071;SDS011;57434;42.794;23.302;2023-04-03T02:14:26;6.13;;;2.05;;
70071;SDS011;57434;42.794;23.302;2023-04-03T02:15:28;4.75;;;2.25;;
70071;SDS011;57434;42.794;23.302;2023-04-03T02:16:29;6.32;;;2.45;;
70071;SDS011;57434;42.794;23.302;2023-04-03T02:17:31;6.78;;;2.30;;
70071;SDS011;57434;42.794;23.302;2023-04-03T02:18:33;5.55;;;2.28;;
70071;SDS011;57434;42.794;23.302;2023-04-03T02:19:35;7.28;;;2.20;;
70071;SDS011;57434;42.794;23.302;2023-04-03T02:20:37;5.53;;;2.10;;
70071;SDS011;57434;42.794;23.302;2023-04-03T02:21:39;6.23;;;2.50;;
70071;SDS011;57434;42.794;23.302;2023-04-03T02:22:41;5.50;;;2.08;;
70071;SDS011;57434;42.794;23.302;2023-04-03T02:23:43;6.25;;;2.20;;
70071;SDS011;57434;42.794;23.302;2023-04-03T02:24:44;6.95;;;2.45;;
70071;SDS011;57434;42.794;23.302;2023-04-03T02:25:46;4.88;;;1.90;;
70071;SDS011;57434;42.794;23.302;2023-04-03T02:26:48;6.20;;;2.10;;
70071;SDS011;57434;42.794;23.302;2023-04-03T02:27:50;5.68;;;2.28;;
70071;SDS011;57434;42.794;23.302;2023-04-03T02:28:51;5.75;;;2.00;;
70071;SDS011;57434;42.794;23.302;2023-04-03T02:29:53;5.13;;;2.35;;
70071;SDS011;57434;42.794;23.302;2023-04-03T02:30:55;15.82;;;5.40;;
70071;SDS011;57434;42.794;23.302;2023-04-03T02:31:57;11.47;;;3.97;;
70071;SDS011;57434;42.794;23.302;2023-04-03T02:32:58;12.95;;;4.47;;
70071;SDS011;57434;42.794;23.302;2023-04-03T02:34:00;9.65;;;3.38;;
70071;SDS011;57434;42.794;23.302;2023-04-03T02:35:02;7.35;;;3.33;;
70071;SDS011;57434;42.794;23.302;2023-04-03T02:36:04;11.23;;;3.58;;
70071;SDS011;57434;42.794;23.302;2023-04-03T02:37:07;7.97;;;3.25;;
70071;SDS011;57434;42.794;23.302;2023-04-03T02:38:09;6.75;;;3.22;;
70071;SDS011;57434;42.794;23.302;2023-04-03T02:39:10;9.90;;;3.50;;
70071;SDS011;57434;42.794;23.302;2023-04-03T02:40:12;8.00;;;3.00;;
70071;SDS011;57434;42.794;23.302;2023-04-03T02:41:14;7.82;;;2.80;;
70071;SDS011;57434;42.794;23.302;2023-04-03T02:42:16;6.83;;;2.87;;
70071;SDS011;57434;42.794;23.302;2023-04-03T02:43:18;6.75;;;2.75;;
70071;SDS011;57434;42.794;23.302;2023-04-03T02:44:20;7.50;;;2.90;;
70071;SDS011;57434;42.794;23.302;2023-04-03T02:45:21;7.07;;;3.08;;
70071;SDS011;57434;42.794;23.302;2023-04-03T02:46:23;9.70;;;3.35;;
70071;SDS011;57434;42.794;23.302;2023-04-03T02:47:25;8.32;;;3.45;;
70071;SDS011;57434;42.794;23.302;2023-04-03T02:48:27;9.45;;;3.33;;
70071;SDS011;57434;42.794;23.302;2023-04-03T02:49:29;7.88;;;3.38;;
70071;SDS011;57434;42.794;23.302;2023-04-03T02:50:31;9.63;;;3.72;;
70071;SDS011;57434;42.794;23.302;2023-04-03T02:51:33;7.03;;;2.90;;
70071;SDS011;57434;42.794;23.302;2023-04-03T02:52:34;9.97;;;4.17;;
70071;SDS011;57434;42.794;23.302;2023-04-03T02:53:36;12.30;;;4.80;;
70071;SDS011;57434;42.794;23.302;2023-04-03T02:54:38;9.75;;;4.32;;
70071;SDS011;57434;42.794;23.302;2023-04-03T02:55:40;16.98;;;6.18;;
70071;SDS011;57434;42.794;23.302;2023-04-03T02:56:42;12.77;;;4.75;;
70071;SDS011;57434;42.794;23.302;2023-04-03T02:57:43;9.77;;;3.63;;
70071;SDS011;57434;42.794;23.302;2023-04-03T02:58:45;9.35;;;3.70;;
70071;SDS011;57434;42.794;23.302;2023-04-03T02:59:47;8.95;;;3.58;;
70071;SDS011;57434;42.794;23.302;2023-04-03T03:00:49;8.20;;;3.50;;
70071;SDS011;57434;42.794;23.302;2023-04-03T03:01:51;8.35;;;3.60;;
70071;SDS011;57434;42.794;23.302;2023-04-03T03:02:53;9.20;;;3.37;;
70071;SDS011;57434;42.794;23.302;2023-04-03T03:03:54;9.27;;;4.25;;
70071;SDS011;57434;42.794;23.302;2023-04-03T03:04:56;10.30;;;4.22;;
70071;SDS011;57434;42.794;23.302;2023-04-03T03:06:02;10.55;;;4.22;;
70071;SDS011;57434;42.794;23.302;2023-04-03T03:07:11;8.18;;;3.20;;
70071;SDS011;57434;42.794;23.302;2023-04-03T03:08:13;7.63;;;2.83;;
70071;SDS011;57434;42.794;23.302;2023-04-03T03:09:15;6.50;;;3.20;;
70071;SDS011;57434;42.794;23.302;2023-04-03T03:10:16;10.95;;;3.15;;
70071;SDS011;57434;42.794;23.302;2023-04-03T03:11:18;7.88;;;3.05;;
70071;SDS011;57434;42.794;23.302;2023-04-03T03:12:20;18.60;;;7.88;;
70071;SDS011;57434;42.794;23.302;2023-04-03T03:13:22;63.97;;;24.60;;
70071;SDS011;57434;42.794;23.302;2023-04-03T03:14:24;28.88;;;11.77;;
70071;SDS011;57434;42.794;23.302;2023-04-03T03:15:25;13.80;;;5.93;;
70071;SDS011;57434;42.794;23.302;2023-04-03T03:16:27;7.93;;;3.30;;
70071;SDS011;57434;42.794;23.302;2023-04-03T03:17:29;9.48;;;4.30;;
70071;SDS011;57434;42.794;23.302;2023-04-03T03:18:31;8.35;;;3.55;;
70071;SDS011;57434;42.794;23.302;2023-04-03T03:19:32;5.93;;;3.15;;
70071;SDS011;57434;42.794;23.302;2023-04-03T03:20:34;7.78;;;3.25;;
70071;SDS011;57434;42.794;23.302;2023-04-03T03:21:36;8.32;;;3.55;;
70071;SDS011;57434;42.794;23.302;2023-04-03T03:22:38;8.35;;;3.20;;
70071;SDS011;57434;42.794;23.302;2023-04-03T03:23:40;9.87;;;3.23;;
70071;SDS011;57434;42.794;23.302;2023-04-03T03:24:41;6.38;;;3.22;;
70071;SDS011;57434;42.794;23.302;2023-04-03T03:25:43;7.50;;;2.85;;
70071;SDS011;57434;42.794;23.302;2023-04-03T03:26:45;6.70;;;3.20;;
70071;SDS011;57434;42.794;23.302;2023-04-03T03:27:47;6.68;;;2.88;;
70071;SDS011;57434;42.794;23.302;2023-04-03T03:28:48;7.90;;;2.72;;
70071;SDS011;57434;42.794;23.302;2023-04-03T03:29:50;8.55;;;2.60;;
70071;SDS011;57434;42.794;23.302;2023-04-03T03:30:52;7.75;;;3.17;;
70071;SDS011;57434;42.794;23.302;2023-04-03T03:31:54;5.55;;;2.90;;
70071;SDS011;57434;42.794;23.302;2023-04-03T03:32:56;6.45;;;2.58;;
70071;SDS011;57434;42.794;23.302;2023-04-03T03:33:57;7.70;;;2.83;;
70071;SDS011;57434;42.794;23.302;2023-04-03T03:34:59;6.90;;;2.80;;
70071;SDS011;57434;42.794;23.302;2023-04-03T03:36:01;8.07;;;2.72;;
70071;SDS011;57434;42.794;23.302;2023-04-03T03:37:03;6.47;;;2.58;;
70071;SDS011;57434;42.794;23.302;2023-04-03T03:38:04;8.15;;;2.67;;
70071;SDS011;57434;42.794;23.302;2023-04-03T03:39:06;7.38;;;2.65;;
70071;SDS011;57434;42.794;23.302;2023-04-03T03:40:08;6.57;;;3.25;;
70071;SDS011;57434;42.794;23.302;2023-04-03T03:41:10;9.15;;;3.33;;
70071;SDS011;57434;42.794;23.302;2023-04-03T03:42:12;7.57;;;3.72;;
70071;SDS011;57434;42.794;23.302;2023-04-03T03:43:14;9.02;;;4.13;;
70071;SDS011;57434;42.794;23.302;2023-04-03T03:44:16;9.53;;;3.90;;
70071;SDS011;57434;42.794;23.302;2023-04-03T03:45:18;10.95;;;4.45;;
70071;SDS011;57434;42.794;23.302;2023-04-03T03:46:20;11.85;;;4.53;;
70071;SDS011;57434;42.794;23.302;2023-04-03T03:47:21;11.63;;;5.45;;
70071;SDS011;57434;42.794;23.302;2023-04-03T03:48:23;13.25;;;5.07;;
70071;SDS011;57434;42.794;23.302;2023-04-03T03:49:25;9.95;;;5.07;;
70071;SDS011;57434;42.794;23.302;2023-04-03T03:50:27;12.10;;;5.30;;
70071;SDS011;57434;42.794;23.302;2023-04-03T03:51:28;11.13;;;5.43;;
70071;SDS011;57434;42.794;23.302;2023-04-03T03:52:30;12.55;;;6.00;;
70071;SDS011;57434;42.794;23.302;2023-04-03T03:53:32;17.23;;;5.60;;
70071;SDS011;57434;42.794;23.302;2023-04-03T03:54:33;15.70;;;6.23;;
70071;SDS011;57434;42.794;23.302;2023-04-03T03:55:35;14.68;;;6.15;;
70071;SDS011;57434;42.794;23.302;2023-04-03T03:56:37;11.15;;;5.28;;
70071;SDS011;57434;42.794;23.302;2023-04-03T03:57:39;12.07;;;5.70;;
70071;SDS011;57434;42.794;23.302;2023-04-03T03:58:41;14.02;;;6.75;;
70071;SDS011;57434;42.794;23.302;2023-04-03T03:59:43;12.13;;;5.38;;
70071;SDS011;57434;42.794;23.302;2023-04-03T04:00:44;15.77;;;6.88;;
70071;SDS011;57434;42.794;23.302;2023-04-03T04:01:46;13.68;;;6.90;;
70071;SDS011;57434;42.794;23.302;2023-04-03T04:02:48;11.88;;;6.00;;
70071;SDS011;57434;42.794;23.302;2023-04-03T04:03:50;20.63;;;6.55;;
70071;SDS011;57434;42.794;23.302;2023-04-03T04:04:52;12.47;;;6.27;;
70071;SDS011;57434;42.794;23.302;2023-04-03T04:05:53;13.65;;;5.80;;
70071;SDS011;57434;42.794;23.302;2023-04-03T04:06:55;12.05;;;5.57;;
70071;SDS011;57434;42.794;23.302;2023-04-03T04:07:57;11.75;;;6.38;;
70071;SDS011;57434;42.794;23.302;2023-04-03T04:08:59;14.65;;;6.18;;
70071;SDS011;57434;42.794;23.302;2023-04-03T04:10:00;11.23;;;5.60;;
70071;SDS011;57434;42.794;23.302;2023-04-03T04:11:02;13.50;;;6.40;;
70071;SDS011;57434;42.794;23.302;2023-04-03T04:12:04;10.70;;;5.80;;
70071;SDS011;57434;42.794;23.302;2023-04-03T04:13:05;11.00;;;5.32;;
70071;SDS011;57434;42.794;23.302;2023-04-03T04:14:07;11.35;;;5.78;;
70071;SDS011;57434;42.794;23.302;2023-04-03T04:15:09;12.13;;;5.60;;
70071;SDS011;57434;42.794;23.302;2023-04-03T04:16:11;10.85;;;5.88;;
70071;SDS011;57434;42.794;23.302;2023-04-03T04:17:13;10.98;;;5.72;;
70071;SDS011;57434;42.794;23.302;2023-04-03T04:18:15;11.07;;;5.45;;
70071;SDS011;57434;42.794;23.302;2023-04-03T04:19:17;11.15;;;5.28;;
70071;SDS011;57434;42.794;23.302;2023-04-03T04:20:19;9.25;;;5.25;;
70071;SDS011;57434;42.794;23.302;2023-04-03T04:21:20;9.75;;;5.55;;
70071;SDS011;57434;42.794;23.302;2023-04-03T04:22:22;14.57;;;5.43;;
70071;SDS011;57434;42.794;23.302;2023-04-03T04:23:24;11.60;;;5.78;;
70071;SDS011;57434;42.794;23.302;2023-04-03T04:24:25;10.35;;;5.25;;
70071;SDS011;57434;42.794;23.302;2023-04-03T04:25:27;11.70;;;5.70;;
70071;SDS011;57434;42.794;23.302;2023-04-03T04:26:29;15.40;;;5.65;;
70071;SDS011;57434;42.794;23.302;2023-04-03T04:27:30;10.60;;;5.47;;
70071;SDS011;57434;42.794;23.302;2023-04-03T04:28:32;12.27;;;5.45;;
70071;SDS011;57434;42.794;23.302;2023-04-03T04:29:34;11.13;;;5.53;;
70071;SDS011;57434;42.794;23.302;2023-04-03T04:30:35;11.05;;;5.28;;
70071;SDS011;57434;42.794;23.302;2023-04-03T04:31:37;11.48;;;5.63;;
70071;SDS011;57434;42.794;23.302;2023-04-03T04:32:39;10.98;;;5.95;;
70071;SDS011;57434;42.794;23.302;2023-04-03T04:33:41;12.07;;;7.10;;
70071;SDS011;57434;42.794;23.302;2023-04-03T04:34:42;15.23;;;7.05;;
70071;SDS011;57434;42.794;23.302;2023-04-03T04:35:46;17.43;;;9.07;;
70071;SDS011;57434;42.794;23.302;2023-04-03T04:36:49;18.55;;;8.43;;
70071;SDS011;57434;42.794;23.302;2023-04-03T04:37:50;15.60;;;8.70;;
70071;SDS011;57434;42.794;23.302;2023-04-03T04:38:52;22.80;;;8.52;;
70071;SDS011;57434;42.794;23.302;2023-04-03T04:39:54;20.30;;;9.73;;
70071;SDS011;57434;42.794;23.302;2023-04-03T04:40:56;25.33;;;9.88;;
70071;SDS011;57434;42.794;23.302;2023-04-03T04:41:57;18.00;;;9.25;;
70071;SDS011;57434;42.794;23.302;2023-04-03T04:42:59;13.77;;;7.57;;
70071;SDS011;57434;42.794;23.302;2023-04-03T04:44:01;21.02;;;7.20;;
70071;SDS011;57434;42.794;23.302;2023-04-03T04:45:02;14.18;;;7.18;;
70071;SDS011;57434;42.794;23.302;2023-04-03T04:46:05;51.63;;;19.40;;
70071;SDS011;57434;42.794;23.302;2023-04-03T04:47:11;47.00;;;19.30;;
70071;SDS011;57434;42.794;23.302;2023-04-03T04:48:12;68.95;;;24.75;;
70071;SDS011;57434;42.794;23.302;2023-04-03T04:49:14;68.10;;;25.92;;
70071;SDS011;57434;42.794;23.302;2023-04-03T04:50:16;42.55;;;18.02;;
70071;SDS011;57434;42.794;23.302;2023-04-03T04:51:18;36.03;;;13.60;;
70071;SDS011;57434;42.794;23.302;2023-04-03T04:52:20;41.40;;;14.00;;
70071;SDS011;57434;42.794;23.302;2023-04-03T04:53:22;39.33;;;15.13;;
70071;SDS011;57434;42.794;23.302;2023-04-03T04:54:24;47.38;;;16.20;;
70071;SDS011;57434;42.794;23.302;2023-04-03T04:55:25;46.15;;;17.20;;
70071;SDS011;57434;42.794;23.302;2023-04-03T04:56:27;44.83;;;15.97;;
70071;SDS011;57434;42.794;23.302;2023-04-03T04:57:29;34.60;;;13.35;;
70071;SDS011;57434;42.794;23.302;2023-04-03T04:58:31;26.00;;;10.77;;
70071;SDS011;57434;42.794;23.302;2023-04-03T04:59:33;21.65;;;9.50;;
70071;SDS011;57434;42.794;23.302;2023-04-03T05:00:34;22.15;;;9.60;;
70071;SDS011;57434;42.794;23.302;2023-04-03T05:01:36;19.02;;;9.88;;
70071;SDS011;57434;42.794;23.302;2023-04-03T05:02:38;28.95;;;13.32;;
70071;SDS011;57434;42.794;23.302;2023-04-03T05:03:40;29.73;;;14.88;;
70071;SDS011;57434;42.794;23.302;2023-04-03T05:04:42;26.70;;;13.25;;
70071;SDS011;57434;42.794;23.302;2023-04-03T05:05:43;41.53;;;20.10;;
70071;SDS011;57434;42.794;23.302;2023-04-03T05:06:45;27.53;;;14.00;;
70071;SDS011;57434;42.794;23.302;2023-04-03T05:07:47;36.08;;;16.60;;
70071;SDS011;57434;42.794;23.302;2023-04-03T05:08:49;38.67;;;19.23;;
70071;SDS011;57434;42.794;23.302;2023-04-03T05:09:50;43.58;;;20.95;;
70071;SDS011;57434;42.794;23.302;2023-04-03T05:10:52;62.25;;;28.73;;
70071;SDS011;57434;42.794;23.302;2023-04-03T05:11:56;60.08;;;25.50;;
70071;SDS011;57434;42.794;23.302;2023-04-03T05:12:58;34.10;;;15.07;;
70071;SDS011;57434;42.794;23.302;2023-04-03T05:13:59;54.40;;;20.95;;
70071;SDS011;57434;42.794;23.302;2023-04-03T05:15:01;64.65;;;21.08;;
70071;SDS011;57434;42.794;23.302;2023-04-03T05:16:03;53.78;;;18.17;;
70071;SDS011;57434;42.794;23.302;2023-04-03T05:17:05;22.73;;;9.73;;
70071;SDS011;57434;42.794;23.302;2023-04-03T05:18:07;13.75;;;6.80;;
70071;SDS011;57434;42.794;23.302;2023-04-03T05:19:08;11.73;;;6.18;;
70071;SDS011;57434;42.794;23.302;2023-04-03T05:20:10;11.55;;;5.90;;
70071;SDS011;57434;42.794;23.302;2023-04-03T05:21:12;12.20;;;7.55;;
70071;SDS011;57434;42.794;23.302;2023-04-03T05:22:14;11.35;;;5.32;;
70071;SDS011;57434;42.794;23.302;2023-04-03T05:23:16;8.68;;;4.70;;
70071;SDS011;57434;42.794;23.302;2023-04-03T05:24:19;10.98;;;5.03;;
70071;SDS011;57434;42.794;23.302;2023-04-03T05:25:20;12.43;;;6.28;;
70071;SDS011;57434;42.794;23.302;2023-04-03T05:26:22;11.95;;;5.80;;
70071;SDS011;57434;42.794;23.302;2023-04-03T05:27:24;10.87;;;5.43;;
70071;SDS011;57434;42.794;23.302;2023-04-03T05:28:25;15.50;;;5.97;;
70071;SDS011;57434;42.794;23.302;2023-04-03T05:29:27;11.68;;;5.90;;
70071;SDS011;57434;42.794;23.302;2023-04-03T05:30:29;10.48;;;5.63;;
70071;SDS011;57434;42.794;23.302;2023-04-03T05:31:31;10.45;;;5.55;;
70071;SDS011;57434;42.794;23.302;2023-04-03T05:32:32;10.32;;;5.28;;
70071;SDS011;57434;42.794;23.302;2023-04-03T05:33:34;11.70;;;5.28;;
70071;SDS011;57434;42.794;23.302;2023-04-03T05:34:36;12.35;;;5.28;;
70071;SDS011;57434;42.794;23.302;2023-04-03T05:35:38;12.93;;;5.85;;
70071;SDS011;57434;42.794;23.302;2023-04-03T05:36:40;11.00;;;5.03;;
70071;SDS011;57434;42.794;23.302;2023-04-03T05:37:42;12.33;;;5.80;;
70071;SDS011;57434;42.794;23.302;2023-04-03T05:38:44;10.05;;;5.32;;
70071;SDS011;57434;42.794;23.302;2023-04-03T05:39:46;12.10;;;6.13;;
70071;SDS011;57434;42.794;23.302;2023-04-03T05:40:47;10.80;;;5.90;;
70071;SDS011;57434;42.794;23.302;2023-04-03T05:41:49;16.85;;;6.53;;
70071;SDS011;57434;42.794;23.302;2023-04-03T05:42:51;9.85;;;5.63;;
70071;SDS011;57434;42.794;23.302;2023-04-03T05:43:53;10.35;;;5.93;;
70071;SDS011;57434;42.794;23.302;2023-04-03T05:44:54;12.40;;;6.05;;
70071;SDS011;57434;42.794;23.302;2023-04-03T05:45:56;13.93;;;6.18;;
70071;SDS011;57434;42.794;23.302;2023-04-03T05:46:58;14.98;;;8.30;;
70071;SDS011;57434;42.794;23.302;2023-04-03T05:48:00;12.93;;;7.17;;
70071;SDS011;57434;42.794;23.302;2023-04-03T05:49:02;20.77;;;9.07;;
70071;SDS011;57434;42.794;23.302;2023-04-03T05:50:04;16.75;;;7.90;;
70071;SDS011;57434;42.794;23.302;2023-04-03T05:51:07;13.50;;;8.23;;
70071;SDS011;57434;42.794;23.302;2023-04-03T05:52:27;13.80;;;7.18;;
70071;SDS011;57434;42.794;23.302;2023-04-03T05:53:31;13.68;;;7.93;;
70071;SDS011;57434;42.794;23.302;2023-04-03T05:54:36;13.00;;;7.50;;
70071;SDS011;57434;42.794;23.302;2023-04-03T05:55:38;15.05;;;8.02;;
70071;SDS011;57434;42.794;23.302;2023-04-03T05:56:40;15.45;;;8.07;;
70071;SDS011;57434;42.794;23.302;2023-04-03T05:57:41;14.20;;;8.07;;
70071;SDS011;57434;42.794;23.302;2023-04-03T05:58:43;14.60;;;8.10;;
70071;SDS011;57434;42.794;23.302;2023-04-03T05:59:45;14.27;;;8.27;;
70071;SDS011;57434;42.794;23.302;2023-04-03T06:00:47;15.30;;;7.90;;
70071;SDS011;57434;42.794;23.302;2023-04-03T06:01:49;15.05;;;8.68;;
70071;SDS011;57434;42.794;23.302;2023-04-03T06:02:51;15.27;;;8.73;;
70071;SDS011;57434;42.794;23.302;2023-04-03T06:03:53;16.65;;;7.45;;
70071;SDS011;57434;42.794;23.302;2023-04-03T06:04:55;15.75;;;8.60;;
70071;SDS011;57434;42.794;23.302;2023-04-03T06:05:57;14.68;;;7.35;;
70071;SDS011;57434;42.794;23.302;2023-04-03T06:06:59;16.73;;;7.95;;
70071;SDS011;57434;42.794;23.302;2023-04-03T06:08:01;15.25;;;7.72;;
70071;SDS011;57434;42.794;23.302;2023-04-03T06:09:02;18.60;;;7.90;;
70071;SDS011;57434;42.794;23.302;2023-04-03T06:10:04;13.73;;;7.93;;
70071;SDS011;57434;42.794;23.302;2023-04-03T06:11:07;15.13;;;8.25;;
70071;SDS011;57434;42.794;23.302;2023-04-03T06:12:09;13.82;;;7.30;;